Pinebluff, North Carolina
Current Conditions -  °F | °C
As of 10:56 PM on Sunday 25 Jan 2015 (Local Time) from KHFF Reporting Station
Overcast Overcast  
Wind Chill: 41°   Ceiling: 12000
Heat Index: 41°   Visibility: 10mi
Dew Point: 35°   Wind: 3mph
Humidity: 79%   Direction: 130°SE
Pressure: 29.83"   Gusts: NA
Location:  35.11°N, 79.47°W
Report Text: KHFF 260356Z AUTO 13003KT 10SM OVC120 05/02 A2983 RMK AO2 SLP105 T00520019
Loading
Personal Weather Stations






























Interactive Weather Map New forecast layout! Learn more

10-Day Weather Forecast

Advertisements
Track Severe Weather on mobile